Time;durP1;ratioP1;P1;durP2;ratioP2;P2;SDS_P1;SDS_P2;PMS_P1;PMS_P2;Temp;Humidity;BMP_temperature;BMP_pressure;BME280_temperature;BME280_humidity;BME280_pressure;Samples;Min_cycle;Max_cycle;Signal;HPM_P1;HPM_P2
2021/12/31 00:01:46;;;;;;;0.40;0.20;;;8.80;99.90;;;;;;5078269;28;20483;-73
2021/12/31 00:04:11;;;;;;;0.40;0.30;;;8.80;99.90;;;;;;5078906;28;20530;-74
2021/12/31 00:06:41;;;;;;;0.40;0.30;;;8.80;99.90;;;;;;5095376;28;20459;-73
2021/12/31 00:09:07;;;;;;;0.40;0.40;;;8.80;99.90;;;;;;5079127;28;20401;-74
2021/12/31 00:11:35;;;;;;;0.40;0.20;;;8.80;99.90;;;;;;5096851;28;20388;-75
2021/12/31 00:14:01;;;;;;;0.40;0.30;;;8.90;99.90;;;;;;5097425;28;20384;-73
2021/12/31 00:16:27;;;;;;;0.40;0.30;;;8.90;99.90;;;;;;5095700;28;20384;-75
2021/12/31 00:18:53;;;;;;;0.40;0.30;;;8.80;99.90;;;;;;5096387;28;20380;-74
2021/12/31 00:21:19;;;;;;;0.40;0.30;;;8.70;99.90;;;;;;5096627;28;20388;-73
2021/12/31 00:23:46;;;;;;;0.40;0.30;;;8.70;99.90;;;;;;5096188;28;20811;-74
2021/12/31 00:26:12;;;;;;;0.40;0.20;;;8.70;99.90;;;;;;5096229;28;20412;-73
2021/12/31 00:28:37;;;;;;;0.40;0.30;;;8.70;99.90;;;;;;5096419;28;20484;-76
2021/12/31 00:31:03;;;;;;;0.40;0.20;;;8.60;99.90;;;;;;5095925;28;20376;-75
2021/12/31 00:33:29;;;;;;;0.40;0.20;;;8.70;99.90;;;;;;5096385;28;20496;-75
2021/12/31 00:35:55;;;;;;;0.40;0.30;;;8.60;99.90;;;;;;5095942;28;20479;-75
2021/12/31 00:38:20;;;;;;;0.40;0.30;;;8.50;99.90;;;;;;5095260;28;20445;-75
2021/12/31 00:40:46;;;;;;;0.40;0.20;;;8.50;99.90;;;;;;5095813;28;20388;-75
2021/12/31 00:43:12;;;;;;;0.40;0.20;;;8.50;99.90;;;;;;5095656;28;20399;-76
2021/12/31 00:45:41;;;;;;;0.40;0.20;;;8.40;99.90;;;;;;5095727;28;20505;-73
2021/12/31 00:48:11;;;;;;;0.40;0.20;;;8.40;99.90;;;;;;5093725;28;20388;-74
2021/12/31 00:50:38;;;;;;;0.40;0.30;;;8.40;99.90;;;;;;5095985;28;20377;-74
2021/12/31 00:53:05;;;;;;;0.40;0.30;;;8.30;99.90;;;;;;5095110;28;20383;-73
2021/12/31 00:55:31;;;;;;;0.40;0.20;;;8.30;99.90;;;;;;5096060;28;20427;-73
2021/12/31 00:57:57;;;;;;;0.40;0.30;;;8.30;99.90;;;;;;5093933;28;20475;-74
2021/12/31 01:00:23;;;;;;;0.40;0.20;;;8.30;99.90;;;;;;5095219;28;20380;-73
2021/12/31 01:02:49;;;;;;;0.80;0.80;;;8.30;99.90;;;;;;5095637;28;20389;-73
2021/12/31 01:05:16;;;;;;;0.40;0.30;;;8.20;99.90;;;;;;5076784;28;20383;-75
2021/12/31 01:07:42;;;;;;;0.40;0.40;;;8.30;99.90;;;;;;5094313;28;20743;-74
2021/12/31 01:10:12;;;;;;;0.40;0.30;;;8.30;99.90;;;;;;5094674;28;20420;-75
2021/12/31 01:12:38;;;;;;;0.40;0.20;;;8.30;99.90;;;;;;5077444;28;20411;-73
2021/12/31 01:15:09;;;;;;;0.40;0.40;;;8.30;99.90;;;;;;5095571;28;20369;-75
2021/12/31 01:20:21;;;;;;;0.40;0.20;;;8.10;99.90;;;;;;5089272;28;20396;-74
2021/12/31 01:22:47;;;;;;;0.40;0.20;;;8.10;99.90;;;;;;5089140;28;20401;-75
2021/12/31 01:25:13;;;;;;;0.40;0.20;;;8.10;99.90;;;;;;5089115;28;20385;-76
2021/12/31 01:27:39;;;;;;;0.40;0.20;;;8.10;99.90;;;;;;5089004;28;20409;-74
2021/12/31 01:30:06;;;;;;;0.40;0.20;;;8.10;99.90;;;;;;5089577;28;20558;-74
2021/12/31 01:32:32;;;;;;;0.40;0.20;;;8.10;99.90;;;;;;5090989;28;20476;-74
2021/12/31 01:34:59;;;;;;;0.40;0.20;;;7.90;99.90;;;;;;5075381;28;20418;-74
2021/12/31 01:37:25;;;;;;;0.40;0.30;;;7.90;99.90;;;;;;5087684;28;20474;-75
2021/12/31 01:39:50;;;;;;;0.40;0.20;;;8.00;99.90;;;;;;5089256;28;20378;-74
2021/12/31 01:42:21;;;;;;;0.40;0.30;;;7.90;99.90;;;;;;5088799;28;20385;-74
2021/12/31 01:44:55;;;;;;;0.40;0.20;;;8.00;99.90;;;;;;5070662;28;20884;-74
2021/12/31 01:47:23;;;;;;;0.40;0.20;;;8.10;99.90;;;;;;5089414;28;20504;-74
2021/12/31 01:49:58;;;;;;;0.40;0.30;;;7.90;99.90;;;;;;5088729;28;20510;-74
2021/12/31 01:52:25;;;;;;;0.40;0.38;;;8.00;99.90;;;;;;5071560;28;20381;-74
2021/12/31 01:54:51;;;;;;;0.40;0.20;;;8.00;99.90;;;;;;5089263;28;20370;-74
2021/12/31 01:57:18;;;;;;;0.40;0.20;;;8.00;99.90;;;;;;5089553;28;20397;-74
2021/12/31 01:59:44;;;;;;;0.40;0.20;;;7.90;99.90;;;;;;5089079;28;20375;-74
2021/12/31 02:02:10;;;;;;;0.40;0.20;;;7.80;99.90;;;;;;5071706;28;20381;-75
2021/12/31 02:04:41;;;;;;;0.40;0.30;;;7.80;99.90;;;;;;5089396;28;20465;-76
2021/12/31 02:07:07;;;;;;;0.40;0.30;;;7.80;99.90;;;;;;5089370;28;20921;-74
2021/12/31 02:09:43;;;;;;;0.40;0.20;;;7.80;99.90;;;;;;5089499;28;20455;-74
2021/12/31 02:12:09;;;;;;;0.40;0.30;;;7.80;99.90;;;;;;5071962;28;20390;-74
2021/12/31 02:14:36;;;;;;;0.40;0.20;;;7.80;99.90;;;;;;5071748;28;20461;-74
2021/12/31 02:17:07;;;;;;;0.40;0.20;;;7.70;99.90;;;;;;5089072;28;20477;-74
2021/12/31 02:19:33;;;;;;;0.40;0.20;;;7.80;99.90;;;;;;5089561;28;20421;-74
2021/12/31 02:21:59;;;;;;;0.40;0.27;;;7.70;99.90;;;;;;5088488;28;20498;-74
2021/12/31 02:24:25;;;;;;;0.40;0.20;;;7.70;99.90;;;;;;5073302;28;20398;-74
2021/12/31 02:26:51;;;;;;;0.40;0.20;;;7.70;99.90;;;;;;5093656;28;20414;-74
2021/12/31 02:29:24;;;;;;;0.40;0.20;;;7.70;99.90;;;;;;5074227;28;21037;-74
2021/12/31 02:31:50;;;;;;;0.40;0.20;;;7.70;99.90;;;;;;5093628;28;20849;-74
2021/12/31 02:34:16;;;;;;;0.40;0.20;;;7.60;99.90;;;;;;5088211;28;20391;-74
2021/12/31 02:36:41;;;;;;;0.40;0.20;;;7.60;99.90;;;;;;5113604;28;20448;-74
2021/12/31 02:39:07;;;;;;;0.40;0.30;;;7.60;99.90;;;;;;5112936;28;20417;-74
2021/12/31 02:41:33;;;;;;;0.40;0.20;;;7.40;99.90;;;;;;5113600;28;20441;-74
2021/12/31 02:43:58;;;;;;;0.40;0.20;;;7.40;99.90;;;;;;5113456;28;20384;-74
2021/12/31 02:46:24;;;;;;;0.40;0.20;;;7.40;99.90;;;;;;5112956;28;20405;-74
2021/12/31 02:48:56;;;;;;;0.40;0.20;;;7.40;99.90;;;;;;5113720;28;20373;-74
2021/12/31 02:51:26;;;;;;;0.40;0.20;;;7.40;99.90;;;;;;5094618;28;20389;-74
2021/12/31 02:53:54;;;;;;;0.40;0.20;;;7.30;99.90;;;;;;5113774;28;20399;-74
2021/12/31 02:56:21;;;;;;;0.40;0.20;;;7.20;99.90;;;;;;5112750;28;20466;-75
2021/12/31 02:58:47;;;;;;;0.40;0.20;;;7.20;99.90;;;;;;5095527;28;20385;-74
2021/12/31 03:01:13;;;;;;;0.40;0.20;;;7.20;99.90;;;;;;5113089;28;20896;-74
2021/12/31 03:03:41;;;;;;;0.40;0.20;;;7.20;99.90;;;;;;5112760;28;20375;-74
2021/12/31 03:06:09;;;;;;;0.40;0.30;;;7.30;99.90;;;;;;5113220;28;20766;-74
2021/12/31 03:08:40;;;;;;;0.40;0.20;;;7.30;99.90;;;;;;5112368;28;20889;-74
2021/12/31 03:11:07;;;;;;;0.40;0.20;;;7.20;99.90;;;;;;5095281;28;20747;-74
2021/12/31 03:13:34;;;;;;;0.40;0.20;;;7.30;99.90;;;;;;5094342;28;20724;-76
2021/12/31 03:16:01;;;;;;;0.40;0.20;;;7.30;99.90;;;;;;5113340;28;20467;-74
2021/12/31 03:18:28;;;;;;;0.40;0.20;;;7.40;99.90;;;;;;5112799;28;20876;-74
2021/12/31 03:21:27;;;;;;;0.40;0.20;;;7.40;99.90;;;;;;5112413;28;20411;-74
2021/12/31 03:23:45;;;;;;;0.50;0.50;;;7.40;99.90;;;;;;5107710;28;20428;-74
2021/12/31 03:26:11;;;;;;;0.40;0.20;;;7.40;99.90;;;;;;5113035;28;20431;-75
2021/12/31 03:28:36;;;;;;;0.40;0.20;;;7.40;99.90;;;;;;5094015;28;20407;-74
2021/12/31 03:31:04;;;;;;;0.40;0.20;;;7.40;99.90;;;;;;5112368;28;20461;-74
2021/12/31 03:33:30;;;;;;;0.40;0.20;;;7.30;99.90;;;;;;5104494;28;20466;-74
2021/12/31 03:35:56;;;;;;;0.40;0.20;;;7.30;99.90;;;;;;5091776;28;20542;-74
2021/12/31 03:38:21;;;;;;;0.60;0.60;;;7.30;99.90;;;;;;5091740;28;20389;-74
2021/12/31 03:40:47;;;;;;;0.40;0.20;;;7.20;99.90;;;;;;5092389;28;20453;-74
2021/12/31 03:43:14;;;;;;;0.40;0.30;;;7.30;99.90;;;;;;5073538;28;21030;-74
2021/12/31 03:45:40;;;;;;;0.40;0.20;;;7.40;99.90;;;;;;5092342;28;20490;-74
2021/12/31 03:48:06;;;;;;;0.40;0.20;;;7.30;99.90;;;;;;5091504;28;20378;-74
2021/12/31 03:50:32;;;;;;;0.40;0.20;;;7.30;99.90;;;;;;5091695;28;20417;-74
2021/12/31 03:52:58;;;;;;;0.40;0.20;;;7.20;99.90;;;;;;5073937;28;20784;-74
2021/12/31 03:55:24;;;;;;;0.40;0.28;;;7.20;99.90;;;;;;5073365;28;20786;-74
2021/12/31 03:57:50;;;;;;;0.40;0.20;;;7.10;99.90;;;;;;5074018;28;20469;-74
2021/12/31 04:00:16;;;;;;;0.40;0.20;;;7.20;99.90;;;;;;5091227;28;20377;-74
2021/12/31 04:02:42;;;;;;;0.40;0.20;;;7.10;99.90;;;;;;5091711;28;20856;-74
2021/12/31 04:05:08;;;;;;;0.40;0.20;;;7.10;99.90;;;;;;5091021;28;20381;-74
2021/12/31 04:07:34;;;;;;;0.40;0.20;;;7.10;99.90;;;;;;5091876;28;20416;-74
2021/12/31 04:10:00;;;;;;;0.40;0.20;;;7.00;99.90;;;;;;5091844;28;20725;-73
2021/12/31 04:12:25;;;;;;;0.40;0.20;;;7.00;99.90;;;;;;5072929;28;20393;-74
2021/12/31 04:14:51;;;;;;;0.40;0.20;;;7.00;99.90;;;;;;5092007;28;20412;-74
2021/12/31 04:17:17;;;;;;;0.40;0.20;;;7.10;99.90;;;;;;5090673;28;20397;-74
2021/12/31 04:19:43;;;;;;;0.40;0.20;;;7.10;99.90;;;;;;5073408;28;20412;-74
2021/12/31 04:22:11;;;;;;;0.40;0.20;;;7.10;99.90;;;;;;5091134;28;20393;-74
2021/12/31 04:27:09;;;;;;;0.40;0.20;;;7.10;99.90;;;;;;5091572;28;20772;-73
2021/12/31 04:29:35;;;;;;;0.40;0.20;;;7.10;99.90;;;;;;5090723;28;20868;-74
2021/12/31 04:32:01;;;;;;;0.40;0.30;;;7.00;99.90;;;;;;5073375;28;20389;-74
2021/12/31 04:34:27;;;;;;;0.40;0.20;;;7.10;99.90;;;;;;5106967;28;20404;-75
2021/12/31 04:36:53;;;;;;;0.40;0.20;;;7.10;99.90;;;;;;5111015;28;20399;-74
2021/12/31 04:39:19;;;;;;;0.40;0.20;;;7.00;99.90;;;;;;5111107;28;20396;-74
2021/12/31 04:41:45;;;;;;;0.40;0.20;;;7.00;99.90;;;;;;5111114;28;20368;-74
2021/12/31 04:44:10;;;;;;;0.40;0.20;;;7.00;99.90;;;;;;5111228;28;20422;-74
2021/12/31 04:46:36;;;;;;;0.40;0.20;;;7.00;99.90;;;;;;5110560;28;20415;-74
2021/12/31 04:49:03;;;;;;;0.40;0.23;;;6.90;99.90;;;;;;5110652;28;21233;-74
2021/12/31 04:51:28;;;;;;;0.40;0.20;;;6.90;99.90;;;;;;5093530;28;20959;-74
2021/12/31 04:53:54;;;;;;;0.40;0.20;;;6.90;99.90;;;;;;5092615;28;20392;-74
2021/12/31 04:56:20;;;;;;;0.40;0.20;;;7.00;99.90;;;;;;5092581;28;20420;-74
2021/12/31 04:58:46;;;;;;;0.40;0.20;;;7.00;99.90;;;;;;5111495;28;20479;-73
2021/12/31 05:01:11;;;;;;;0.40;0.20;;;7.00;99.90;;;;;;5110935;28;20398;-74
2021/12/31 05:03:37;;;;;;;0.40;0.20;;;7.00;99.90;;;;;;5111816;28;20854;-74
2021/12/31 05:06:03;;;;;;;0.40;0.30;;;7.00;99.90;;;;;;5110165;28;20404;-74
2021/12/31 05:08:29;;;;;;;0.40;0.20;;;7.00;99.90;;;;;;5110753;28;20420;-74
2021/12/31 05:10:54;;;;;;;0.40;0.20;;;6.90;99.90;;;;;;5075838;28;20419;-75
2021/12/31 05:13:20;;;;;;;0.40;0.20;;;6.90;99.90;;;;;;5110658;28;20384;-73
2021/12/31 05:15:48;;;;;;;0.80;0.60;;;6.90;99.90;;;;;;5111239;28;20478;-73
2021/12/31 05:18:14;;;;;;;0.40;0.20;;;6.90;99.90;;;;;;5110698;28;20377;-72
2021/12/31 05:20:41;;;;;;;0.40;0.20;;;6.90;99.90;;;;;;5111170;28;20416;-72
2021/12/31 05:23:07;;;;;;;0.40;0.20;;;7.00;99.90;;;;;;5110321;28;20726;-74
2021/12/31 05:25:33;;;;;;;1.40;1.00;;;7.00;99.90;;;;;;5111034;28;20429;-74
2021/12/31 05:28:00;;;;;;;0.40;0.20;;;7.10;99.90;;;;;;5092284;28;20383;-72
2021/12/31 05:30:26;;;;;;;0.40;0.20;;;7.10;99.90;;;;;;5109903;28;20407;-72
2021/12/31 05:32:53;;;;;;;0.40;0.20;;;7.10;99.90;;;;;;5108615;28;20381;-72
2021/12/31 05:35:18;;;;;;;0.40;0.20;;;7.10;99.90;;;;;;5071689;28;20402;-72
2021/12/31 05:37:44;;;;;;;0.40;0.20;;;7.10;99.90;;;;;;5090739;28;20794;-74
2021/12/31 05:40:10;;;;;;;0.40;0.20;;;7.10;99.90;;;;;;5090618;28;20378;-74
2021/12/31 05:42:36;;;;;;;0.40;0.20;;;7.10;99.90;;;;;;5089933;28;20382;-72
2021/12/31 05:45:02;;;;;;;0.40;0.20;;;7.10;99.90;;;;;;5090591;28;20721;-72
2021/12/31 05:47:28;;;;;;;0.40;0.30;;;7.10;99.90;;;;;;5071716;28;20434;-72
2021/12/31 05:49:54;;;;;;;0.40;0.20;;;7.10;99.90;;;;;;5090441;28;20409;-72
2021/12/31 05:52:21;;;;;;;0.40;0.30;;;7.10;99.90;;;;;;5090655;28;20374;-72
2021/12/31 05:54:46;;;;;;;0.40;0.20;;;7.10;99.90;;;;;;5089599;28;20912;-73
2021/12/31 05:57:12;;;;;;;0.40;0.30;;;7.10;99.90;;;;;;5091241;28;20439;-72
2021/12/31 05:59:38;;;;;;;0.40;0.20;;;7.00;99.90;;;;;;5075760;28;20382;-72
2021/12/31 06:02:04;;;;;;;0.40;0.20;;;7.00;99.90;;;;;;5094463;28;20709;-72
2021/12/31 06:04:30;;;;;;;0.40;0.20;;;6.90;99.90;;;;;;5094492;28;20382;-73
2021/12/31 06:06:55;;;;;;;0.40;0.20;;;6.90;99.90;;;;;;5093105;28;20674;-72
2021/12/31 06:09:21;;;;;;;0.40;0.20;;;6.80;99.90;;;;;;5094459;28;20438;-72
2021/12/31 06:11:47;;;;;;;0.40;0.20;;;6.70;99.90;;;;;;5093730;28;20474;-72
2021/12/31 06:14:13;;;;;;;0.40;0.20;;;6.70;99.90;;;;;;5094254;28;20685;-72
2021/12/31 06:16:43;;;;;;;0.40;0.20;;;6.60;99.90;;;;;;5094149;28;20386;-72
2021/12/31 06:19:11;;;;;;;0.40;0.20;;;6.60;99.90;;;;;;5093759;28;20434;-72
2021/12/31 06:21:42;;;;;;;0.40;0.20;;;6.60;99.90;;;;;;5094116;28;20374;-73
2021/12/31 06:24:08;;;;;;;0.40;0.20;;;6.50;99.90;;;;;;5092979;28;20401;-72
2021/12/31 06:26:34;;;;;;;0.40;0.20;;;6.50;99.90;;;;;;5093640;28;20409;-72
2021/12/31 06:29:00;;;;;;;0.40;0.20;;;6.50;99.90;;;;;;5092981;28;20407;-74
2021/12/31 06:31:26;;;;;;;0.40;0.20;;;6.50;99.90;;;;;;5093679;28;20397;-72
2021/12/31 06:33:52;;;;;;;0.40;0.20;;;6.40;99.90;;;;;;5104486;28;20381;-72
2021/12/31 06:36:19;;;;;;;0.50;0.40;;;6.50;99.90;;;;;;5113332;28;20464;-72
2021/12/31 06:38:45;;;;;;;0.40;0.20;;;6.50;99.90;;;;;;5114215;28;20376;-72
2021/12/31 06:41:10;;;;;;;0.40;0.20;;;6.40;99.90;;;;;;5113062;28;20373;-72
2021/12/31 06:43:36;;;;;;;0.40;0.20;;;6.40;99.90;;;;;;5113898;28;20435;-72
2021/12/31 06:46:02;;;;;;;0.40;0.20;;;6.50;99.90;;;;;;5113267;28;20408;-72
2021/12/31 06:48:28;;;;;;;0.40;0.20;;;6.50;99.90;;;;;;5113328;28;20380;-72
2021/12/31 06:50:53;;;;;;;0.40;0.20;;;6.40;99.90;;;;;;5113936;28;20379;-72
2021/12/31 06:53:19;;;;;;;0.40;0.20;;;6.40;99.90;;;;;;5113106;28;20731;-73
2021/12/31 06:55:45;;;;;;;0.40;0.40;;;6.40;99.90;;;;;;5113668;28;20467;-74
2021/12/31 06:58:10;;;;;;;0.40;0.20;;;6.50;99.90;;;;;;5113651;28;20426;-74
2021/12/31 07:00:36;;;;;;;0.40;0.30;;;6.50;99.90;;;;;;5112377;28;20408;-74
2021/12/31 07:03:10;;;;;;;0.40;0.20;;;6.50;99.90;;;;;;5113654;28;20488;-72
2021/12/31 07:05:36;;;;;;;0.40;0.20;;;6.50;99.90;;;;;;5112571;28;20862;-74
2021/12/31 07:08:03;;;;;;;0.40;0.20;;;6.50;99.90;;;;;;5113626;28;20373;-72
2021/12/31 07:10:28;;;;;;;0.40;0.20;;;6.40;99.90;;;;;;5112807;28;20404;-74
2021/12/31 07:12:59;;;;;;;0.40;0.30;;;6.40;99.90;;;;;;5112717;28;20412;-73
2021/12/31 07:15:25;;;;;;;0.40;0.20;;;6.40;99.90;;;;;;5113318;28;20376;-73
2021/12/31 07:17:52;;;;;;;0.40;0.20;;;6.40;99.90;;;;;;5112566;28;20392;-74
2021/12/31 07:20:18;;;;;;;0.40;0.30;;;6.40;99.90;;;;;;5094956;28;20476;-73
2021/12/31 07:22:44;;;;;;;0.40;0.20;;;6.40;99.90;;;;;;5112391;28;20380;-74
2021/12/31 07:25:10;;;;;;;0.40;0.20;;;6.30;99.90;;;;;;5113758;28;20392;-73
2021/12/31 07:27:35;;;;;;;0.40;0.20;;;6.40;99.90;;;;;;5113258;28;20507;-73
2021/12/31 07:30:01;;;;;;;0.40;0.20;;;6.50;99.90;;;;;;5077533;28;20409;-73
2021/12/31 07:32:27;;;;;;;0.40;0.40;;;6.50;99.90;;;;;;5092436;28;20837;-73
2021/12/31 07:34:52;;;;;;;0.40;0.20;;;6.50;99.90;;;;;;5072356;28;20380;-74
2021/12/31 07:37:18;;;;;;;0.40;0.20;;;6.40;99.90;;;;;;5072206;28;20387;-73
2021/12/31 07:39:47;;;;;;;0.40;0.20;;;6.50;99.90;;;;;;5072477;28;20377;-73
2021/12/31 07:42:14;;;;;;;0.40;0.20;;;6.40;99.90;;;;;;5053514;28;20397;-73
2021/12/31 07:44:40;;;;;;;0.40;0.30;;;6.30;99.90;;;;;;5072187;28;20423;-73
2021/12/31 07:47:06;;;;;;;0.40;0.30;;;6.40;99.90;;;;;;5071086;28;20828;-74
2021/12/31 07:49:32;;;;;;;0.40;0.20;;;6.30;99.90;;;;;;5072436;28;20407;-73
2021/12/31 07:51:57;;;;;;;0.40;0.20;;;6.30;99.90;;;;;;5071512;28;20419;-74
2021/12/31 07:54:23;;;;;;;0.40;0.20;;;6.20;99.90;;;;;;5070958;28;20635;-73
2021/12/31 07:56:49;;;;;;;0.40;0.20;;;6.40;99.90;;;;;;5072281;28;20801;-73
2021/12/31 07:59:15;;;;;;;0.50;0.50;;;6.40;99.90;;;;;;5071227;28;20391;-73
2021/12/31 08:01:41;;;;;;;0.40;0.20;;;6.40;99.90;;;;;;5053918;28;20392;-73
2021/12/31 08:04:06;;;;;;;0.40;0.20;;;6.40;99.90;;;;;;5072238;28;20409;-73
2021/12/31 08:06:32;;;;;;;0.40;0.20;;;6.40;99.90;;;;;;5070642;28;20496;-73
2021/12/31 08:08:58;;;;;;;0.40;0.20;;;6.40;99.90;;;;;;5071518;28;20411;-73
2021/12/31 08:11:23;;;;;;;0.40;0.20;;;6.50;99.90;;;;;;5073232;28;20455;-75
2021/12/31 08:13:49;;;;;;;0.40;0.40;;;6.50;99.90;;;;;;5084914;28;20382;-74
2021/12/31 08:16:15;;;;;;;0.40;0.20;;;6.60;99.90;;;;;;5080595;28;20379;-74
2021/12/31 08:18:40;;;;;;;0.40;0.20;;;6.70;99.90;;;;;;5059488;28;20434;-74
2021/12/31 08:21:07;;;;;;;0.40;0.20;;;6.70;99.90;;;;;;5081347;28;20371;-74
2021/12/31 08:23:32;;;;;;;0.40;0.20;;;6.80;99.90;;;;;;5080602;28;20775;-72
2021/12/31 08:26:01;;;;;;;1.80;0.90;;;6.90;99.90;;;;;;5079294;28;20514;-72
2021/12/31 08:28:27;;;;;;;0.40;0.40;;;6.90;99.90;;;;;;5082543;28;20409;-72
2021/12/31 08:30:52;;;;;;;0.40;0.20;;;7.00;99.90;;;;;;5103194;28;20576;-72
2021/12/31 08:33:18;;;;;;;0.40;0.40;;;7.00;99.90;;;;;;5101550;28;20467;-73
2021/12/31 08:35:44;;;;;;;0.40;0.30;;;7.00;99.90;;;;;;5100107;28;20574;-73
2021/12/31 08:38:10;;;;;;;0.40;0.20;;;7.00;99.90;;;;;;5100641;28;20431;-73
2021/12/31 08:40:36;;;;;;;0.40;0.30;;;7.10;99.90;;;;;;5082879;28;20380;-75
2021/12/31 08:43:02;;;;;;;0.40;0.20;;;7.10;99.90;;;;;;5083039;28;20410;-72
2021/12/31 08:45:29;;;;;;;0.40;0.20;;;7.20;99.90;;;;;;5102816;28;20393;-73
2021/12/31 08:47:57;;;;;;;0.40;0.20;;;7.30;99.90;;;;;;5102658;28;20406;-73
2021/12/31 08:50:23;;;;;;;0.40;0.40;;;7.40;99.90;;;;;;5102298;28;20385;-73
2021/12/31 08:52:49;;;;;;;0.40;0.20;;;7.40;99.90;;;;;;5099727;28;20373;-73
2021/12/31 08:55:17;;;;;;;0.40;0.30;;;7.60;99.90;;;;;;5100582;28;20384;-73
2021/12/31 08:57:43;;;;;;;0.40;0.40;;;7.70;99.90;;;;;;5099612;28;20439;-73
2021/12/31 09:00:09;;;;;;;0.40;0.20;;;7.80;99.90;;;;;;5103313;28;20494;-73
2021/12/31 09:02:35;;;;;;;0.40;0.20;;;8.00;99.90;;;;;;5101399;28;20457;-73
2021/12/31 09:05:02;;;;;;;0.40;0.20;;;8.10;99.90;;;;;;5106976;28;20918;-73
2021/12/31 09:07:27;;;;;;;0.40;0.30;;;8.20;99.90;;;;;;5098461;28;20408;-73
2021/12/31 09:09:53;;;;;;;0.40;0.20;;;8.30;99.90;;;;;;5101663;28;20438;-74
2021/12/31 09:12:19;;;;;;;0.60;0.60;;;8.40;99.90;;;;;;5101510;28;20370;-73
2021/12/31 09:14:45;;;;;;;1.10;0.50;;;8.50;99.90;;;;;;5082538;28;20411;-73
2021/12/31 09:17:10;;;;;;;0.40;0.30;;;8.50;99.90;;;;;;5100266;28;20387;-73
2021/12/31 09:19:36;;;;;;;0.40;0.20;;;8.60;99.90;;;;;;5101266;28;20451;-73
2021/12/31 09:22:04;;;;;;;0.40;0.20;;;8.60;99.90;;;;;;5101381;28;20376;-75
2021/12/31 09:24:30;;;;;;;0.40;0.30;;;8.60;99.90;;;;;;5101418;28;20390;-74
2021/12/31 09:26:56;;;;;;;0.40;0.20;;;8.70;99.90;;;;;;5081147;28;20764;-74
2021/12/31 09:29:23;;;;;;;0.60;0.60;;;8.70;99.90;;;;;;5082537;28;20476;-74
2021/12/31 09:31:52;;;;;;;0.40;0.20;;;8.80;99.90;;;;;;5102327;28;20377;-73
2021/12/31 09:34:18;;;;;;;0.40;0.30;;;8.80;99.90;;;;;;5087064;28;20386;-74
2021/12/31 09:36:44;;;;;;;0.40;0.20;;;8.80;99.90;;;;;;5087964;28;20412;-74
2021/12/31 09:39:10;;;;;;;0.40;0.30;;;8.90;99.90;;;;;;5103832;28;20471;-73
2021/12/31 09:41:36;;;;;;;1.10;0.50;;;9.00;99.90;;;;;;5085542;28;20380;-73
2021/12/31 09:44:02;;;;;;;0.70;0.70;;;9.10;99.90;;;;;;5089328;28;20881;-73
2021/12/31 09:46:28;;;;;;;0.40;0.20;;;9.10;99.90;;;;;;5084850;28;20440;-73
2021/12/31 09:48:53;;;;;;;0.40;0.20;;;9.20;99.90;;;;;;5085724;28;20388;-73
2021/12/31 09:51:20;;;;;;;0.40;0.20;;;9.40;99.90;;;;;;5096371;28;20385;-75
2021/12/31 09:53:46;;;;;;;0.40;0.20;;;9.50;99.90;;;;;;5101137;28;20450;-73
2021/12/31 09:56:13;;;;;;;3.20;0.70;;;9.60;99.90;;;;;;5076230;28;20386;-73
2021/12/31 09:58:40;;;;;;;0.40;0.20;;;9.70;99.90;;;;;;5075225;28;20450;-73
2021/12/31 10:01:08;;;;;;;0.40;0.20;;;9.70;99.90;;;;;;5094232;28;20378;-73
2021/12/31 10:03:35;;;;;;;0.40;0.30;;;9.90;99.90;;;;;;5093451;28;20864;-74
2021/12/31 10:06:12;;;;;;;0.40;0.30;;;9.90;99.90;;;;;;5076528;28;20413;-73
2021/12/31 10:08:43;;;;;;;0.40;0.30;;;10.00;99.90;;;;;;5093119;28;20405;-74
2021/12/31 10:11:12;;;;;;;0.77;0.55;;;10.10;99.90;;;;;;5094189;28;20375;-74
2021/12/31 10:13:43;;;;;;;0.40;0.20;;;10.10;99.90;;;;;;5075179;28;20415;-76
2021/12/31 10:16:32;;;;;;;1.00;1.00;;;10.20;99.90;;;;;;5094135;28;20465;-74
2021/12/31 10:19:15;;;;;;;0.40;0.38;;;10.30;99.90;;;;;;5093729;28;21010;-74
2021/12/31 10:21:43;;;;;;;0.40;0.30;;;10.40;99.90;;;;;;5093562;28;20393;-76
2021/12/31 10:24:32;;;;;;;0.40;0.30;;;10.50;99.90;;;;;;5093661;28;20393;-74
2021/12/31 10:27:20;;;;;;;0.40;0.20;;;10.60;99.90;;;;;;5093076;28;20830;-74
2021/12/31 10:29:53;;;;;;;0.40;0.20;;;10.70;99.90;;;;;;5093198;28;20402;-76
2021/12/31 10:32:19;;;;;;;0.40;0.32;;;10.80;99.90;;;;;;5093899;28;20396;-74
2021/12/31 10:34:44;;;;;;;0.40;0.20;;;10.90;99.90;;;;;;5093873;28;20530;-74
2021/12/31 10:37:25;;;;;;;0.40;0.30;;;11.00;99.90;;;;;;5092718;28;20402;-74
2021/12/31 10:39:59;;;;;;;0.40;0.20;;;11.20;99.90;;;;;;5075130;28;20444;-77
2021/12/31 10:42:33;;;;;;;0.40;0.30;;;11.30;99.90;;;;;;5073663;27;20379;-73
2021/12/31 10:45:03;;;;;;;0.40;0.20;;;11.30;99.90;;;;;;5133422;27;20394;-74
2021/12/31 10:47:29;;;;;;;0.40;0.20;;;11.30;99.90;;;;;;5131167;27;20745;-73
2021/12/31 10:50:00;;;;;;;0.90;0.45;;;11.30;99.90;;;;;;5103532;28;20382;-73
2021/12/31 10:52:37;;;;;;;0.40;0.22;;;11.50;99.90;;;;;;5102511;28;20382;-73
2021/12/31 10:55:25;;;;;;;0.50;0.40;;;11.60;99.90;;;;;;5082528;28;20394;-74
2021/12/31 10:57:54;;;;;;;0.40;0.30;;;11.70;99.90;;;;;;5075543;28;20740;-73
2021/12/31 11:00:21;;;;;;;0.40;0.30;;;11.80;99.90;;;;;;5092877;28;20385;-73
2021/12/31 11:02:47;;;;;;;0.40;0.30;;;11.80;99.90;;;;;;5093055;28;20731;-74
2021/12/31 11:05:16;;;;;;;0.40;0.30;;;11.90;99.90;;;;;;5092738;28;20825;-74
2021/12/31 11:07:43;;;;;;;0.40;0.20;;;12.00;99.90;;;;;;5075387;28;20468;-74
2021/12/31 11:10:10;;;;;;;0.40;0.30;;;12.10;99.90;;;;;;5077238;28;20394;-77
2021/12/31 11:12:37;;;;;;;0.60;0.60;;;12.30;99.90;;;;;;5097256;28;20380;-74
2021/12/31 11:15:06;;;;;;;0.40;0.30;;;12.20;99.90;;;;;;5094500;28;20384;-74
2021/12/31 11:17:32;;;;;;;0.40;0.40;;;12.30;99.90;;;;;;5113294;28;20385;-73
2021/12/31 11:19:59;;;;;;;0.40;0.30;;;12.40;99.90;;;;;;5113423;28;20479;-74
2021/12/31 11:22:27;;;;;;;0.40;0.30;;;12.90;99.90;;;;;;5108545;28;20374;-74
2021/12/31 11:24:53;;;;;;;0.40;0.20;;;13.40;99.90;;;;;;5083300;28;20416;-73
2021/12/31 11:27:28;;;;;;;0.40;0.20;;;14.00;99.90;;;;;;5103581;28;20404;-73
2021/12/31 11:29:55;;;;;;;0.40;0.30;;;14.50;99.90;;;;;;5093351;28;20454;-72
2021/12/31 11:32:42;;;;;;;0.40;0.30;;;15.00;99.90;;;;;;5094780;28;20380;-74
2021/12/31 11:35:33;;;;;;;0.40;0.20;;;15.60;99.90;;;;;;5075368;28;20784;-74
2021/12/31 11:38:01;;;;;;;0.40;0.20;;;15.50;99.90;;;;;;5092603;28;20439;-72
2021/12/31 11:40:41;;;;;;;0.40;0.20;;;15.90;99.90;;;;;;5073992;28;20910;-75
2021/12/31 11:43:24;;;;;;;0.40;0.30;;;15.90;99.90;;;;;;5074569;28;20443;-73
2021/12/31 11:48:48;;;;;;;0.40;0.30;;;16.30;99.90;;;;;;5091635;28;20385;-74
2021/12/31 11:51:18;;;;;;;0.40;0.30;;;15.70;99.90;;;;;;5073719;28;20386;-73
2021/12/31 11:53:58;;;;;;;0.40;0.30;;;16.30;99.90;;;;;;5082360;27;20482;-74
2021/12/31 11:56:36;;;;;;;0.40;0.20;;;17.10;99.50;;;;;;5109493;27;20393;-73
2021/12/31 11:59:07;;;;;;;0.40;0.20;;;17.10;97.30;;;;;;5106853;27;20461;-74
2021/12/31 12:01:43;;;;;;;0.40;0.20;;;17.90;95.70;;;;;;5110729;27;20495;-74
2021/12/31 12:04:28;;;;;;;0.40;0.30;;;18.30;94.40;;;;;;5101234;27;20390;-74
2021/12/31 12:07:01;;;;;;;0.40;0.30;;;18.10;95.60;;;;;;5104685;27;20786;-74
2021/12/31 12:09:36;;;;;;;0.50;0.50;;;18.20;95.10;;;;;;5131418;27;20375;-74
2021/12/31 12:12:04;;;;;;;0.40;0.20;;;18.00;94.70;;;;;;5129044;27;20421;-74
2021/12/31 12:14:37;;;;;;;0.40;0.20;;;18.40;93.50;;;;;;5105922;28;20536;-73
2021/12/31 12:17:04;;;;;;;0.40;0.30;;;18.30;93.30;;;;;;5106377;27;20382;-73
2021/12/31 12:20:01;;;;;;;0.40;0.30;;;19.10;92.40;;;;;;5108539;27;20743;-73
2021/12/31 12:22:49;;;;;;;0.40;0.25;;;19.00;92.70;;;;;;5079219;27;20414;-73
2021/12/31 12:25:21;;;;;;;0.40;0.20;;;19.40;91.90;;;;;;5126465;27;20539;-73
2021/12/31 12:27:49;;;;;;;0.40;0.20;;;19.40;91.10;;;;;;5101211;27;20805;-73
2021/12/31 12:30:17;;;;;;;0.40;0.30;;;18.30;91.80;;;;;;5125434;27;20436;-73
2021/12/31 12:35:17;;;;;;;0.40;0.20;;;17.20;93.90;;;;;;5123758;27;20424;-72
2021/12/31 12:37:53;;;;;;;0.40;0.20;;;16.70;95.20;;;;;;5100056;27;20375;-72
2021/12/31 12:40:19;;;;;;;0.50;0.47;;;15.90;95.70;;;;;;5129361;27;20363;-73
2021/12/31 12:42:45;;;;;;;0.40;0.30;;;15.90;96.90;;;;;;5124228;27;20387;-72
2021/12/31 12:45:11;;;;;;;0.40;0.30;;;15.90;97.40;;;;;;5131080;27;20390;-73
2021/12/31 12:47:37;;;;;;;0.40;0.30;;;15.70;97.20;;;;;;5098159;27;20399;-72
2021/12/31 12:50:08;;;;;;;0.40;0.20;;;15.70;98.00;;;;;;5113569;27;20778;-72
2021/12/31 12:52:34;;;;;;;0.40;0.20;;;15.80;97.40;;;;;;5131482;27;20382;-72
2021/12/31 12:55:15;;;;;;;0.40;0.30;;;15.80;97.70;;;;;;5131228;27;20435;-72
2021/12/31 12:57:41;;;;;;;0.40;0.30;;;15.70;97.00;;;;;;5090414;28;20912;-72
2021/12/31 13:00:09;;;;;;;0.60;0.60;;;15.80;96.90;;;;;;5085010;28;20831;-73
2021/12/31 13:02:40;;;;;;;0.40;0.20;;;15.60;97.10;;;;;;5121815;27;20535;-72
2021/12/31 13:05:07;;;;;;;0.40;0.20;;;15.70;96.70;;;;;;5128581;27;20432;-74
2021/12/31 13:07:32;;;;;;;0.40;0.28;;;15.80;95.90;;;;;;5128428;27;20406;-72
2021/12/31 13:10:05;;;;;;;0.40;0.30;;;15.80;95.60;;;;;;5113669;27;20903;-72